Time;durP1;ratioP1;P1;durP2;ratioP2;P2;SDS_P1;SDS_P2;PMS_P1;PMS_P2;Temp;Humidity;BMP_temperature;BMP_pressure;BME280_temperature;BME280_humidity;BME280_pressure;Samples;Min_cycle;Max_cycle;Signal;HPM_P1;HPM_P2
2022/08/20 00:00:47;;;;;;;4.63;2.17;;;;;;;26.92;52.18;101298.88;5013974;28;20105;-60
2022/08/20 00:03:14;;;;;;;3.45;2.00;;;;;;;26.96;51.88;101300.13;5015328;28;20056;-60
2022/08/20 00:05:44;;;;;;;4.38;2.30;;;;;;;27.02;51.47;101292.88;5014794;28;20042;-60
2022/08/20 00:08:10;;;;;;;2.33;1.80;;;;;;;27.08;51.56;101290.03;5014767;28;20040;-60
2022/08/20 00:10:39;;;;;;;3.30;1.75;;;;;;;27.14;51.74;101289.13;5014841;28;20041;-60
2022/08/20 00:13:07;;;;;;;3.08;1.90;;;;;;;27.15;51.57;101279.81;5013551;28;20029;-60
2022/08/20 00:15:34;;;;;;;2.33;1.85;;;;;;;27.22;51.32;101282.50;5014860;28;20064;-60
2022/08/20 00:18:00;;;;;;;4.20;2.35;;;;;;;27.29;51.84;101293.44;5013574;28;20079;-60
2022/08/20 00:20:29;;;;;;;5.28;2.40;;;;;;;27.30;51.51;101284.97;5014683;28;20108;-60
2022/08/20 00:22:56;;;;;;;4.18;2.10;;;;;;;27.35;51.56;101285.13;5014565;28;20160;-60
2022/08/20 00:25:23;;;;;;;5.85;2.25;;;;;;;27.38;51.46;101289.31;5013263;28;20037;-60
2022/08/20 00:27:48;;;;;;;5.85;2.22;;;;;;;27.38;50.84;101286.56;5013237;28;20418;-60
2022/08/20 00:30:14;;;;;;;6.15;2.58;;;;;;;27.42;50.78;101287.81;4996882;28;20029;-60
2022/08/20 00:32:54;;;;;;;3.65;2.70;;;;;;;27.47;50.82;101285.25;5013192;28;20399;-60
2022/08/20 00:35:22;;;;;;;3.80;2.20;;;;;;;27.47;50.59;101280.56;5014191;28;20057;-60
2022/08/20 00:37:47;;;;;;;5.25;2.70;;;;;;;27.51;51.57;101272.69;5013063;28;20387;-60
2022/08/20 00:40:16;;;;;;;4.70;2.30;;;;;;;27.53;51.37;101276.03;5014204;28;20087;-60
2022/08/20 00:42:44;;;;;;;7.07;2.30;;;;;;;27.55;50.72;101279.44;5013069;28;20030;-60
2022/08/20 00:45:10;;;;;;;3.72;2.40;;;;;;;27.56;50.59;101275.59;5012927;28;20117;-60
2022/08/20 00:47:39;;;;;;;1.95;1.77;;;;;;;27.57;51.24;101275.38;5014052;28;20032;-60
2022/08/20 00:50:06;;;;;;;2.90;1.98;;;;;;;27.57;50.66;101271.78;5013225;28;20490;-60
2022/08/20 00:52:32;;;;;;;2.33;1.83;;;;;;;27.58;51.60;101270.72;4996460;28;20025;-61
2022/08/20 00:54:58;;;;;;;3.55;1.52;;;;;;;27.57;50.85;101269.03;5012734;28;20430;-60
2022/08/20 00:57:33;;;;;;;7.43;2.10;;;;;;;27.52;51.11;101277.97;4996405;28;20049;-60
2022/08/20 01:00:01;;;;;;;2.35;1.70;;;;;;;27.54;51.61;101277.75;4996427;28;20026;-60
2022/08/20 01:02:28;;;;;;;6.07;1.88;;;;;;;27.52;50.95;101277.13;5012911;28;20172;-60
2022/08/20 01:04:54;;;;;;;4.53;1.85;;;;;;;27.42;51.29;101271.31;5012597;28;20092;-68
2022/08/20 01:07:23;;;;;;;6.13;2.63;;;;;;;27.25;51.80;101270.22;4996544;28;20105;-63
2022/08/20 01:09:49;;;;;;;3.38;2.70;;;;;;;27.15;52.36;101277.06;5012545;28;20033;-59
2022/08/20 01:12:15;;;;;;;4.82;2.95;;;;;;;27.05;52.54;101275.91;5014044;28;20030;-61
2022/08/20 01:14:45;;;;;;;9.25;3.20;;;;;;;26.98;52.09;101275.13;5012758;28;20026;-68
2022/08/20 01:17:17;;;;;;;5.45;3.20;;;;;;;26.88;52.43;101270.16;5012300;28;20036;-60
2022/08/20 01:19:53;;;;;;;4.37;2.63;;;;;;;26.82;52.98;101271.03;5012575;28;20064;-59
2022/08/20 01:25:27;;;;;;;7.57;3.00;;;;;;;26.69;53.42;101264.78;5012585;28;20033;-66
2022/08/20 01:27:53;;;;;;;10.30;3.42;;;;;;;26.65;53.07;101274.53;5012494;28;20029;-68
2022/08/20 01:30:19;;;;;;;6.63;3.28;;;;;;;26.60;53.18;101270.53;5013717;28;20030;-62
2022/08/20 01:32:44;;;;;;;5.60;3.25;;;;;;;26.55;53.15;101269.53;5012382;28;20395;-60
2022/08/20 01:35:10;;;;;;;3.42;2.92;;;;;;;26.53;53.18;101269.75;5013471;28;20491;-59
2022/08/20 01:37:35;;;;;;;9.85;3.55;;;;;;;26.51;53.90;101273.78;5013507;28;20464;-59
2022/08/20 01:40:03;;;;;;;10.35;3.50;;;;;;;26.50;53.39;101274.84;5013455;28;20137;-59
2022/08/20 01:42:37;;;;;;;4.47;3.15;;;;;;;26.49;54.05;101278.69;5012254;28;20107;-59
2022/08/20 01:45:04;;;;;;;5.63;3.15;;;;;;;26.50;53.69;101281.19;5013366;28;20026;-60
2022/08/20 01:47:31;;;;;;;7.15;3.40;;;;;;;26.52;54.14;101281.00;5013364;28;20029;-59
2022/08/20 01:50:05;;;;;;;5.07;3.25;;;;;;;26.53;54.20;101278.00;5013340;28;20032;-59
2022/08/20 01:52:42;;;;;;;4.88;3.22;;;;;;;26.53;54.29;101282.66;5012276;28;20109;-60
2022/08/20 01:55:09;;;;;;;4.10;3.38;;;;;;;26.52;54.39;101289.22;5012018;28;20164;-60
2022/08/20 01:57:35;;;;;;;3.90;3.03;;;;;;;26.53;53.76;101288.16;5013307;28;20025;-59
2022/08/20 02:00:08;;;;;;;8.68;4.00;;;;;;;26.55;54.05;101291.50;4995757;28;20033;-59
2022/08/20 02:02:33;;;;;;;5.88;4.15;;;;;;;26.54;54.35;101284.34;5012209;28;20041;-60
2022/08/20 02:04:59;;;;;;;6.85;4.45;;;;;;;26.54;53.78;101276.09;5013235;28;20046;-60
2022/08/20 02:07:25;;;;;;;6.75;4.10;;;;;;;26.57;54.25;101275.66;4995690;28;20081;-60
2022/08/20 02:09:51;;;;;;;6.85;4.20;;;;;;;26.58;54.19;101286.41;5013449;28;20440;-60
2022/08/20 02:12:16;;;;;;;7.25;4.13;;;;;;;26.59;53.83;101276.28;5012075;28;20029;-60
2022/08/20 02:14:52;;;;;;;8.20;4.78;;;;;;;26.65;53.83;101280.88;5011997;28;20487;-60
2022/08/20 02:17:21;;;;;;;7.82;5.03;;;;;;;26.76;53.63;101293.91;5011387;28;20033;-60
2022/08/20 02:19:53;;;;;;;8.93;5.03;;;;;;;26.79;53.10;101293.50;4992376;28;20535;-60
2022/08/20 02:22:22;;;;;;;8.13;5.38;;;;;;;26.83;53.85;101282.88;4992250;28;20081;-60
2022/08/20 02:24:48;;;;;;;10.88;5.35;;;;;;;26.86;53.23;101287.91;4992475;28;20376;-60
2022/08/20 02:27:14;;;;;;;10.45;5.53;;;;;;;26.87;53.31;101287.69;4979183;28;20037;-60
2022/08/20 02:29:39;;;;;;;10.55;5.38;;;;;;;26.87;53.27;101284.94;5011853;28;20022;-60
2022/08/20 02:32:06;;;;;;;11.35;5.55;;;;;;;26.94;53.18;101291.22;5013017;28;20117;-60
2022/08/20 02:34:33;;;;;;;9.77;5.72;;;;;;;26.98;52.77;101297.97;4999206;28;20022;-62
2022/08/20 02:36:59;;;;;;;7.57;5.50;;;;;;;26.98;52.54;101286.97;5016413;28;20092;-60
2022/08/20 02:39:25;;;;;;;8.65;5.88;;;;;;;27.00;52.43;101284.81;5016386;28;20034;-60
2022/08/20 02:41:51;;;;;;;9.57;5.65;;;;;;;27.02;52.38;101293.72;5015215;28;20076;-60
2022/08/20 02:44:19;;;;;;;8.70;5.85;;;;;;;27.02;52.24;101288.22;5016391;28;20030;-60
2022/08/20 02:46:44;;;;;;;13.30;6.57;;;;;;;27.03;52.20;101291.78;5016271;28;20022;-60
2022/08/20 02:49:10;;;;;;;11.18;6.03;;;;;;;27.02;52.67;101290.97;5016399;28;20080;-60
2022/08/20 02:51:35;;;;;;;9.10;5.68;;;;;;;27.05;52.07;101295.16;4998756;28;20038;-60
2022/08/20 02:54:01;;;;;;;8.57;6.32;;;;;;;27.06;51.96;101303.19;5016280;28;20491;-60
2022/08/20 02:56:26;;;;;;;9.68;5.43;;;;;;;27.06;51.59;101303.19;5016102;28;20022;-60
2022/08/20 02:58:52;;;;;;;10.25;6.38;;;;;;;27.04;52.20;101302.56;5014930;28;20224;-60
2022/08/20 03:01:17;;;;;;;10.80;6.82;;;;;;;27.00;51.71;101293.06;5016086;28;20030;-60
2022/08/20 03:03:43;;;;;;;8.70;6.22;;;;;;;27.00;52.10;101298.56;5014938;28;20081;-60
2022/08/20 03:06:10;;;;;;;10.77;6.22;;;;;;;27.02;52.56;101310.22;5015952;28;20027;-60
2022/08/20 03:08:35;;;;;;;10.63;6.53;;;;;;;27.03;52.55;101306.38;4998347;28;20030;-60
2022/08/20 03:11:01;;;;;;;11.30;6.57;;;;;;;27.03;52.12;101313.78;5015993;28;20029;-60
2022/08/20 03:13:26;;;;;;;12.05;6.15;;;;;;;27.03;51.69;101306.38;5014562;28;20088;-61
2022/08/20 03:15:58;;;;;;;9.65;6.68;;;;;;;27.03;52.08;101305.53;5016042;28;20037;-60
2022/08/20 03:18:25;;;;;;;12.55;6.95;;;;;;;27.02;52.09;101309.38;5015779;28;20033;-60
2022/08/20 03:20:51;;;;;;;12.98;5.82;;;;;;;26.87;51.88;101282.19;5014483;28;20025;-60
2022/08/20 03:23:18;;;;;;;12.90;7.00;;;;;;;27.02;51.46;101303.88;5014434;28;20483;-61
2022/08/20 03:25:44;;;;;;;10.75;6.22;;;;;;;26.99;51.46;101307.91;5015664;28;20382;-60
2022/08/20 03:28:09;;;;;;;9.77;6.38;;;;;;;26.98;52.26;101308.97;5014347;28;20030;-60
2022/08/20 03:30:35;;;;;;;10.90;6.57;;;;;;;26.95;51.46;101303.91;5015534;28;20048;-60
2022/08/20 03:33:00;;;;;;;12.82;7.45;;;;;;;26.94;51.46;101313.22;5015461;28;20034;-60
2022/08/20 03:35:27;;;;;;;9.55;6.22;;;;;;;26.93;51.61;101314.31;5015633;28;20506;-60
2022/08/20 03:37:53;;;;;;;8.43;6.05;;;;;;;26.92;51.97;101314.50;5014247;28;20026;-60
2022/08/20 03:40:23;;;;;;;11.65;6.93;;;;;;;26.89;51.31;101320.47;4997748;28;20479;-60
2022/08/20 03:42:48;;;;;;;13.30;6.88;;;;;;;26.85;51.94;101311.84;5015394;28;20075;-60
2022/08/20 03:45:14;;;;;;;14.05;6.95;;;;;;;26.80;51.97;101306.16;5014848;28;20432;-60
2022/08/20 03:47:40;;;;;;;11.27;6.10;;;;;;;26.82;50.93;101314.19;4997591;28;20480;-60
2022/08/20 03:50:08;;;;;;;9.38;6.15;;;;;;;26.80;51.84;101317.16;5015528;28;20069;-60
2022/08/20 03:52:33;;;;;;;10.43;5.93;;;;;;;26.77;51.14;101323.09;5015057;28;20033;-60
2022/08/20 03:54:59;;;;;;;13.13;6.13;;;;;;;26.73;51.15;101321.84;5015024;28;20025;-60
2022/08/20 03:57:24;;;;;;;13.32;6.78;;;;;;;26.71;51.13;101321.22;5015059;28;20026;-60
2022/08/20 03:59:50;;;;;;;11.48;5.63;;;;;;;26.68;51.42;101312.56;5015011;28;20048;-60
2022/08/20 04:02:16;;;;;;;11.20;6.65;;;;;;;26.72;51.77;101313.81;5013780;28;20037;-60
2022/08/20 04:04:41;;;;;;;17.65;6.70;;;;;;;26.72;50.95;101324.81;5014755;28;20170;-60
2022/08/20 04:07:28;;;;;;;17.88;6.00;;;;;;;26.70;51.42;101315.94;5014978;28;20441;-60
2022/08/20 04:09:55;;;;;;;10.70;6.00;;;;;;;26.69;51.32;101322.53;5014455;28;20495;-60
2022/08/20 04:12:22;;;;;;;12.80;6.70;;;;;;;26.67;51.21;101314.47;5013521;28;20036;-60
2022/08/20 04:14:48;;;;;;;9.13;5.63;;;;;;;26.65;51.36;101324.88;5014724;28;20483;-60
2022/08/20 04:17:13;;;;;;;10.13;6.25;;;;;;;26.65;51.17;101324.88;5013586;28;20028;-60
2022/08/20 04:19:40;;;;;;;11.27;6.15;;;;;;;26.62;51.17;101319.81;5014704;28;20116;-60
2022/08/20 04:22:06;;;;;;;13.20;6.18;;;;;;;26.59;51.19;101320.25;5013508;28;20057;-60
2022/08/20 04:24:32;;;;;;;9.73;5.40;;;;;;;26.61;50.90;101329.09;5013219;28;20088;-60
2022/08/20 04:27:01;;;;;;;7.32;4.72;;;;;;;26.61;51.00;101337.34;5013596;28;20036;-60
2022/08/20 04:29:26;;;;;;;10.05;5.63;;;;;;;26.58;51.05;101344.13;5013151;28;20026;-60
2022/08/20 04:31:52;;;;;;;7.88;5.22;;;;;;;26.58;51.19;101352.38;5014387;28;20041;-60
2022/08/20 04:34:18;;;;;;;13.35;5.63;;;;;;;26.59;51.51;101364.22;5014408;28;20448;-60
2022/08/20 04:36:46;;;;;;;15.30;6.10;;;;;;;26.57;51.31;101364.47;5012934;28;20080;-61
2022/08/20 04:39:15;;;;;;;11.48;5.47;;;;;;;26.57;50.63;101375.47;5014260;28;20062;-60
2022/08/20 04:41:41;;;;;;;13.48;5.72;;;;;;;26.59;51.10;101372.47;5012940;28;20034;-60
2022/08/20 04:44:06;;;;;;;13.60;5.15;;;;;;;26.60;50.97;101382.41;5014283;28;20498;-60
2022/08/20 04:46:32;;;;;;;8.73;4.97;;;;;;;26.58;50.94;101376.28;5014259;28;20108;-60
2022/08/20 04:48:57;;;;;;;11.05;4.93;;;;;;;26.58;50.90;101382.63;5012964;28;20030;-60
2022/08/20 04:51:23;;;;;;;8.88;5.00;;;;;;;26.54;50.55;101378.63;5014299;28;20384;-60
2022/08/20 04:53:49;;;;;;;10.75;5.40;;;;;;;26.52;50.71;101386.25;5013013;28;20044;-60
2022/08/20 04:56:14;;;;;;;12.38;5.65;;;;;;;26.50;50.95;101382.03;5011980;28;20084;-60
2022/08/20 04:58:40;;;;;;;12.18;4.80;;;;;;;26.47;50.40;101396.22;5013932;28;20057;-60
2022/08/20 05:01:08;;;;;;;10.40;4.10;;;;;;;26.45;50.70;101387.34;5013879;28;20030;-60
2022/08/20 05:03:36;;;;;;;13.32;4.00;;;;;;;26.46;50.96;101398.13;5014107;28;20048;-61
2022/08/20 05:06:03;;;;;;;8.20;3.78;;;;;;;26.44;50.23;101385.66;5013988;28;20045;-60
2022/08/20 05:08:28;;;;;;;9.32;2.78;;;;;;;26.37;50.31;101395.84;5013769;28;20034;-60
2022/08/20 05:10:55;;;;;;;10.15;3.55;;;;;;;26.33;50.70;101400.09;5013696;28;20647;-60
2022/08/20 05:13:20;;;;;;;7.20;3.83;;;;;;;26.29;50.36;101402.44;5013730;28;20025;-60
2022/08/20 05:15:47;;;;;;;7.47;3.10;;;;;;;26.26;50.09;101402.03;5013615;28;20037;-60
2022/08/20 05:18:17;;;;;;;5.90;3.13;;;;;;;26.25;50.43;101405.81;5013638;28;20057;-60
2022/08/20 05:20:42;;;;;;;7.43;2.75;;;;;;;26.20;50.43;101409.25;5013669;28;20030;-60
2022/08/20 05:23:10;;;;;;;12.82;3.58;;;;;;;26.16;50.47;101407.97;5012389;28;20044;-60
2022/08/20 05:25:35;;;;;;;4.95;2.30;;;;;;;26.12;50.47;101417.69;5013575;28;20031;-60
2022/08/20 05:28:08;;;;;;;9.68;3.30;;;;;;;26.07;49.79;101414.75;5012524;28;20041;-60
2022/08/20 05:30:40;;;;;;;12.65;2.58;;;;;;;26.07;50.13;101424.88;5013521;28;20475;-60
2022/08/20 05:33:07;;;;;;;11.02;3.20;;;;;;;26.06;50.05;101424.03;5013624;28;20056;-60
2022/08/20 05:35:37;;;;;;;10.93;3.35;;;;;;;26.04;50.37;101421.53;5012295;28;20038;-60
2022/08/20 05:38:03;;;;;;;14.25;3.85;;;;;;;26.04;50.19;101418.78;5012457;28;20057;-60
2022/08/20 05:40:29;;;;;;;10.95;2.95;;;;;;;26.07;49.77;101422.16;5012185;28;20029;-60
2022/08/20 05:42:54;;;;;;;11.43;3.00;;;;;;;26.09;49.77;101422.75;5013418;28;20041;-60
2022/08/20 05:45:20;;;;;;;7.90;2.53;;;;;;;26.04;50.00;101416.03;5013542;28;20041;-60
2022/08/20 05:47:47;;;;;;;5.93;3.58;;;;;;;26.05;49.91;101431.44;5013408;28;20036;-60
2022/08/20 05:50:13;;;;;;;6.50;3.20;;;;;;;26.05;50.04;101427.84;5012302;28;20029;-60
2022/08/20 05:52:39;;;;;;;10.48;3.72;;;;;;;26.06;49.56;101432.28;5013411;28;20018;-60
2022/08/20 05:55:07;;;;;;;14.73;4.55;;;;;;;26.03;49.58;101430.81;5013269;28;20541;-60
2022/08/20 05:57:33;;;;;;;12.52;5.60;;;;;;;26.02;49.72;101429.13;5012021;28;20069;-60
2022/08/20 06:00:01;;;;;;;11.60;4.97;;;;;;;26.00;49.43;101428.50;5013310;28;20054;-60
2022/08/20 06:05:10;;;;;;;19.63;5.03;;;;;;;25.96;49.37;101438.22;5012915;28;20153;-60
2022/08/20 06:07:35;;;;;;;13.95;5.50;;;;;;;25.95;49.32;101431.06;5014272;28;20137;-60
2022/08/20 06:10:01;;;;;;;20.23;5.15;;;;;;;25.90;49.57;101430.84;5017357;28;20033;-60
2022/08/20 06:12:26;;;;;;;16.02;5.68;;;;;;;25.90;49.13;101436.34;5016972;28;20029;-60
2022/08/20 06:14:51;;;;;;;19.00;6.25;;;;;;;25.87;49.36;101435.94;5016131;28;20033;-61
2022/08/20 06:17:17;;;;;;;15.40;5.43;;;;;;;25.90;49.51;101447.34;5015675;28;20038;-62
2022/08/20 06:19:45;;;;;;;17.42;5.35;;;;;;;25.94;49.56;101453.22;5017136;28;20096;-62
2022/08/20 06:22:12;;;;;;;18.33;7.00;;;;;;;25.98;49.78;101447.09;5015789;28;20021;-62
2022/08/20 06:24:37;;;;;;;14.82;5.35;;;;;;;26.01;49.28;101443.06;5016942;28;20520;-62
2022/08/20 06:27:04;;;;;;;15.68;4.70;;;;;;;25.97;49.27;101436.31;5016722;28;20057;-61
2022/08/20 06:29:32;;;;;;;19.27;6.22;;;;;;;26.02;49.48;101440.09;5016697;28;20041;-61
2022/08/20 06:31:57;;;;;;;24.85;4.68;;;;;;;26.01;49.30;101435.69;5015764;28;20108;-61
2022/08/20 06:34:26;;;;;;;18.70;4.45;;;;;;;26.04;49.42;101435.25;5016605;28;20022;-61
2022/08/20 06:36:52;;;;;;;20.45;6.20;;;;;;;26.05;48.75;101431.44;5015387;28;20041;-62
2022/08/20 06:39:18;;;;;;;18.40;5.93;;;;;;;26.12;49.27;101449.81;5016762;28;20038;-62
2022/08/20 06:41:43;;;;;;;16.60;5.10;;;;;;;26.11;49.83;101448.09;5016476;28;20036;-56
2022/08/20 06:44:09;;;;;;;14.43;5.10;;;;;;;26.12;49.74;101450.66;5015560;28;20049;-56
2022/08/20 06:46:35;;;;;;;16.35;5.53;;;;;;;26.17;49.55;101448.13;5016619;28;20048;-56
2022/08/20 06:49:03;;;;;;;22.58;6.05;;;;;;;26.22;49.21;101444.72;5016375;28;20022;-56
2022/08/20 06:51:29;;;;;;;22.13;5.55;;;;;;;26.22;49.24;101450.22;5016364;28;20026;-56
2022/08/20 06:53:55;;;;;;;17.00;5.25;;;;;;;26.29;49.21;101457.41;5016196;28;20072;-57
2022/08/20 06:56:21;;;;;;;16.77;4.57;;;;;;;26.34;49.07;101448.50;5014985;28;20396;-56
2022/08/20 06:58:46;;;;;;;14.60;5.18;;;;;;;26.38;48.77;101449.75;5016415;28;20026;-56
2022/08/20 07:01:12;;;;;;;19.08;5.60;;;;;;;26.44;49.49;101459.84;5016020;28;20083;-56
2022/08/20 07:03:39;;;;;;;17.83;5.70;;;;;;;26.49;49.56;101455.38;5016055;28;20499;-56
2022/08/20 07:06:05;;;;;;;23.25;4.78;;;;;;;26.50;49.18;101459.84;5015847;28;20054;-56
2022/08/20 07:08:30;;;;;;;23.52;5.78;;;;;;;26.52;49.38;101456.88;5015889;28;20533;-56
2022/08/20 07:10:56;;;;;;;25.58;6.07;;;;;;;26.54;48.89;101457.50;5015998;28;20033;-56
2022/08/20 07:13:21;;;;;;;16.58;5.30;;;;;;;26.47;48.35;101462.16;5015826;28;20021;-56
2022/08/20 07:15:47;;;;;;;29.58;6.13;;;;;;;26.40;48.42;101453.97;5015687;28;20364;-56
2022/08/20 07:18:13;;;;;;;23.27;5.82;;;;;;;26.43;49.16;101463.69;5015207;28;20037;-56
2022/08/20 07:20:39;;;;;;;22.48;6.90;;;;;;;26.48;49.15;101469.34;5016018;28;20545;-56
2022/08/20 07:23:06;;;;;;;26.75;6.57;;;;;;;26.53;48.63;101461.28;5014453;28;20050;-56
2022/08/20 07:25:32;;;;;;;27.42;6.07;;;;;;;26.59;48.47;101465.94;5015530;28;20029;-56
2022/08/20 07:28:04;;;;;;;21.83;6.43;;;;;;;26.61;48.67;101452.78;5014454;28;20069;-56
2022/08/20 07:33:14;;;;;;;16.58;5.75;;;;;;;26.83;48.67;101465.19;5015508;28;20072;-56
2022/08/20 07:35:40;;;;;;;17.60;5.82;;;;;;;26.88;48.10;101459.91;5015571;28;20483;-56
2022/08/20 07:38:06;;;;;;;25.48;5.90;;;;;;;26.89;47.87;101464.31;5015553;28;20061;-56
2022/08/20 07:40:33;;;;;;;22.73;6.32;;;;;;;26.90;48.24;101470.66;5015435;28;20053;-61
2022/08/20 07:43:01;;;;;;;18.98;6.05;;;;;;;26.95;47.61;101479.94;5015287;28;20022;-60
2022/08/20 07:45:27;;;;;;;24.05;5.80;;;;;;;26.92;47.98;101480.38;5015202;28;20030;-60
2022/08/20 07:47:53;;;;;;;20.80;5.90;;;;;;;26.93;48.08;101493.06;5015269;28;20021;-60
2022/08/20 07:50:23;;;;;;;23.58;5.78;;;;;;;26.91;47.79;101486.94;5015171;28;20030;-60
2022/08/20 07:52:52;;;;;;;28.30;6.82;;;;;;;26.95;47.37;101490.94;5013973;28;20030;-60
2022/08/20 07:55:19;;;;;;;23.73;6.43;;;;;;;26.99;47.66;101483.94;5014963;28;20037;-61
2022/08/20 07:57:47;;;;;;;16.15;5.45;;;;;;;27.03;47.96;101490.66;5013932;28;20021;-60
2022/08/20 08:00:13;;;;;;;20.38;6.25;;;;;;;27.15;47.38;101482.56;5013874;28;20049;-60
2022/08/20 08:02:38;;;;;;;17.55;5.70;;;;;;;27.17;47.42;101485.94;5013746;28;20052;-60
2022/08/20 08:05:05;;;;;;;15.88;5.43;;;;;;;27.14;47.80;101484.47;5014833;28;20463;-60
2022/08/20 08:07:32;;;;;;;24.42;5.95;;;;;;;27.10;48.20;101490.66;5014750;28;20025;-60
2022/08/20 08:09:59;;;;;;;27.60;5.40;;;;;;;26.98;48.05;101493.25;4997740;28;20018;-61
2022/08/20 08:12:33;;;;;;;17.70;5.25;;;;;;;26.99;48.08;101496.84;5013665;28;20037;-61
2022/08/20 08:14:59;;;;;;;22.90;5.47;;;;;;;27.00;48.44;101493.88;5014705;28;20395;-60
2022/08/20 08:17:24;;;;;;;14.15;5.20;;;;;;;26.99;48.45;101497.69;5014622;28;20030;-61
2022/08/20 08:19:50;;;;;;;23.55;5.95;;;;;;;26.99;47.88;101492.19;5013791;28;20116;-60
2022/08/20 08:22:17;;;;;;;23.55;5.50;;;;;;;27.01;47.94;101495.56;5014628;28;20045;-61
2022/08/20 08:24:45;;;;;;;25.17;5.88;;;;;;;27.11;47.19;101487.66;5013305;28;20029;-61
2022/08/20 08:27:17;;;;;;;17.38;5.63;;;;;;;27.20;47.78;101499.25;5014564;28;20438;-60
2022/08/20 08:29:43;;;;;;;17.35;5.80;;;;;;;27.26;47.72;101498.34;5014394;28;20030;-61
2022/08/20 08:32:09;;;;;;;16.10;5.15;;;;;;;27.27;47.34;101491.81;5014751;28;20595;-61
2022/08/20 08:34:35;;;;;;;15.52;5.57;;;;;;;27.33;47.01;101481.81;5013352;28;20112;-61
2022/08/20 08:37:01;;;;;;;10.20;4.90;;;;;;;27.36;47.77;101486.88;4996635;28;20022;-61
2022/08/20 08:39:29;;;;;;;12.80;5.85;;;;;;;27.35;47.60;101490.69;5014281;28;20030;-61
2022/08/20 08:41:56;;;;;;;16.42;5.00;;;;;;;27.31;47.52;101494.94;5014181;28;20065;-61
2022/08/20 08:44:33;;;;;;;16.38;4.95;;;;;;;27.38;47.45;101493.00;5013199;28;20030;-61
2022/08/20 08:47:24;;;;;;;11.77;4.85;;;;;;;27.53;46.94;101504.53;5014218;28;20060;-61
2022/08/20 08:49:49;;;;;;;13.93;5.40;;;;;;;27.65;47.41;101503.59;5013071;28;20018;-61
2022/08/20 08:52:21;;;;;;;20.55;5.97;;;;;;;27.77;47.32;101503.72;5014131;28;20546;-61
2022/08/20 08:54:49;;;;;;;15.20;6.00;;;;;;;27.91;47.44;101507.19;5012837;28;20026;-61
2022/08/20 08:57:15;;;;;;;16.60;4.63;;;;;;;28.19;46.55;101504.81;5012820;28;20034;-61
2022/08/20 08:59:41;;;;;;;15.30;5.10;;;;;;;28.22;47.00;101509.88;5012704;28;20076;-61
2022/08/20 09:02:06;;;;;;;16.38;5.53;;;;;;;28.21;47.17;101509.00;5012780;28;20045;-61
2022/08/20 09:04:35;;;;;;;14.35;5.95;;;;;;;28.29;47.25;101511.47;4996246;28;20042;-60
2022/08/20 09:07:02;;;;;;;13.55;5.97;;;;;;;28.40;46.12;101518.13;4996141;28;20018;-61
2022/08/20 09:09:32;;;;;;;16.55;5.80;;;;;;;28.71;45.83;101525.44;5013693;28;20424;-61
2022/08/20 09:12:08;;;;;;;20.30;6.03;;;;;;;29.00;45.59;101519.09;5012491;28;20025;-61
2022/08/20 09:14:34;;;;;;;19.73;7.03;;;;;;;29.03;45.84;101520.56;5013771;28;20029;-61
2022/08/20 09:17:00;;;;;;;18.90;5.35;;;;;;;28.92;46.22;101516.69;5012521;28;20029;-61
2022/08/20 09:19:26;;;;;;;15.07;6.13;;;;;;;28.86;45.71;101523.13;4996375;28;20121;-61
2022/08/20 09:21:51;;;;;;;13.43;4.85;;;;;;;28.91;45.98;101528.78;5013699;28;20462;-61
2022/08/20 09:24:16;;;;;;;14.70;5.88;;;;;;;28.99;45.84;101525.69;5013487;28;20036;-61
2022/08/20 09:26:42;;;;;;;13.63;5.90;;;;;;;29.03;46.06;101518.66;5013874;28;20026;-60
2022/08/20 09:29:08;;;;;;;16.73;6.25;;;;;;;29.01;46.12;101529.06;5013646;28;20025;-61
2022/08/20 09:31:34;;;;;;;22.05;6.15;;;;;;;29.00;46.36;101524.63;5013902;28;20033;-61
2022/08/20 09:33:59;;;;;;;16.77;6.25;;;;;;;29.06;45.80;101526.47;5011488;28;20026;-61
2022/08/20 09:36:26;;;;;;;20.90;6.57;;;;;;;28.95;45.75;101515.38;5013111;28;20081;-61
2022/08/20 09:38:52;;;;;;;18.38;5.80;;;;;;;29.08;45.12;101527.06;5012454;28;20022;-61
2022/08/20 09:41:17;;;;;;;17.48;5.78;;;;;;;28.98;45.42;101521.22;5014577;28;20037;-60
2022/08/20 09:43:42;;;;;;;13.95;6.32;;;;;;;28.93;45.73;101523.84;5020108;28;20076;-60
2022/08/20 09:46:08;;;;;;;13.73;5.00;;;;;;;28.88;45.22;101529.25;5019968;28;20112;-61
2022/08/20 09:48:33;;;;;;;14.68;5.65;;;;;;;28.87;45.35;101541.34;5019917;28;20033;-61
2022/08/20 09:50:59;;;;;;;17.80;5.28;;;;;;;28.97;44.78;101518.72;5019979;28;20068;-61
2022/08/20 09:53:24;;;;;;;15.68;5.53;;;;;;;29.11;44.74;101532.09;5018724;28;20025;-61
2022/08/20 09:55:54;;;;;;;13.95;5.88;;;;;;;29.32;44.31;101534.38;5018639;28;20049;-61
2022/08/20 09:58:41;;;;;;;16.08;5.18;;;;;;;29.53;44.69;101523.84;5020084;28;20022;-61
2022/08/20 10:01:12;;;;;;;11.25;5.43;;;;;;;29.63;44.39;101529.63;5019832;28;20105;-61
2022/08/20 10:03:37;;;;;;;14.75;5.40;;;;;;;29.94;43.63;101521.06;5018547;28;20088;-61
2022/08/20 10:06:03;;;;;;;9.45;4.70;;;;;;;30.20;44.20;101537.16;5019682;28;20491;-61
2022/08/20 10:08:28;;;;;;;15.25;4.95;;;;;;;30.64;43.12;101537.59;5019716;28;20038;-61
2022/08/20 10:10:53;;;;;;;10.27;4.82;;;;;;;30.84;43.50;101540.81;5018519;28;20042;-61
2022/08/20 10:13:19;;;;;;;13.38;4.68;;;;;;;30.73;43.33;101541.69;5002087;28;20029;-61
2022/08/20 10:15:44;;;;;;;11.52;4.50;;;;;;;30.67;43.11;101542.66;5019694;28;20037;-61
2022/08/20 10:18:09;;;;;;;7.95;3.97;;;;;;;30.68;43.06;101541.56;5002018;28;20502;-61
2022/08/20 10:20:35;;;;;;;17.02;5.03;;;;;;;30.76;43.12;101546.72;5019664;28;20034;-61
2022/08/20 10:23:01;;;;;;;9.05;4.63;;;;;;;30.61;43.07;101546.38;5019910;28;20463;-61
2022/08/20 10:25:27;;;;;;;15.95;4.97;;;;;;;30.55;43.32;101540.75;5019527;28;20368;-61
2022/08/20 10:27:53;;;;;;;11.13;4.90;;;;;;;30.51;43.19;101547.84;5018416;28;20033;-61
2022/08/20 10:30:19;;;;;;;11.57;5.00;;;;;;;30.54;43.12;101544.59;5018274;28;20026;-61
2022/08/20 10:32:44;;;;;;;13.95;4.97;;;;;;;30.49;43.10;101551.94;5019568;28;20029;-61
2022/08/20 10:35:11;;;;;;;11.73;5.22;;;;;;;30.40;43.17;101545.94;5019639;28;20049;-61
2022/08/20 10:37:36;;;;;;;12.88;4.70;;;;;;;30.35;42.80;101551.31;5018143;28;20475;-61
2022/08/20 10:40:02;;;;;;;12.60;5.30;;;;;;;30.28;42.67;101556.16;5019513;28;20117;-61
2022/08/20 10:42:28;;;;;;;14.30;4.35;;;;;;;30.26;42.89;101552.81;5019455;28;20084;-61
2022/08/20 10:44:53;;;;;;;11.10;4.63;;;;;;;30.34;42.96;101549.66;5019653;28;20033;-61
2022/08/20 10:47:25;;;;;;;9.75;4.57;;;;;;;30.52;42.54;101559.75;5018328;28;20022;-61
2022/08/20 10:49:52;;;;;;;10.47;4.70;;;;;;;30.55;42.43;101557.34;5019470;28;20026;-61
2022/08/20 10:52:18;;;;;;;10.18;4.28;;;;;;;30.58;42.23;101548.56;5019325;28;20317;-61
2022/08/20 10:54:45;;;;;;;9.70;4.15;;;;;;;30.70;42.37;101548.53;5015084;28;20024;-61
2022/08/20 10:57:16;;;;;;;10.70;4.63;;;;;;;31.15;41.75;101556.97;5016174;28;20036;-61
2022/08/20 10:59:43;;;;;;;13.68;4.47;;;;;;;32.62;39.83;101547.28;5016210;28;20053;-61
2022/08/20 11:02:08;;;;;;;9.90;3.70;;;;;;;32.31;40.56;101545.16;5016205;28;20057;-61
2022/08/20 11:04:35;;;;;;;10.93;4.60;;;;;;;32.24;41.21;101544.50;4998213;28;20084;-61
2022/08/20 11:07:28;;;;;;;11.30;4.65;;;;;;;32.90;40.08;101553.72;5014772;28;20109;-61
2022/08/20 11:09:54;;;;;;;9.52;4.30;;;;;;;33.81;39.10;101539.72;5015378;28;20030;-61
2022/08/20 11:12:20;;;;;;;12.40;5.50;;;;;;;34.69;38.21;101552.03;5014679;28;20025;-61
2022/08/20 11:14:47;;;;;;;7.35;4.35;;;;;;;35.42;37.09;101545.31;5015795;28;20446;-61
2022/08/20 11:17:20;;;;;;;9.38;4.32;;;;;;;36.02;36.55;101538.94;5015663;28;20021;-61
2022/08/20 11:19:46;;;;;;;9.10;5.05;;;;;;;36.56;36.93;101538.31;5015778;28;20530;-61
2022/08/20 11:22:11;;;;;;;7.65;3.63;;;;;;;37.05;35.87;101541.19;5015833;28;20121;-61
2022/08/20 11:24:37;;;;;;;11.88;3.38;;;;;;;37.50;35.17;101537.25;5015664;28;20104;-61
2022/08/20 11:27:04;;;;;;;7.47;3.85;;;;;;;37.92;35.09;101539.44;5015661;28;20061;-61